Time;durP1;ratioP1;P1;durP2;ratioP2;P2;SDS_P1;SDS_P2;PMS_P1;PMS_P2;Temp;Humidity;BMP_temperature;BMP_pressure;BME280_temperature;BME280_humidity;BME280_pressure;Samples;Min_cycle;Max_cycle;Signal;HPM_P1;HPM_P2
2022/10/03 00:01:20;;;;;;;14.63;3.10;;;11.60;99.90;;;;;;5029846;28;20286;-68
2022/10/03 00:04:00;;;;;;;14.53;3.13;;;11.50;99.90;;;;;;5027913;28;20196;-69
2022/10/03 00:06:48;;;;;;;18.10;3.57;;;11.60;99.90;;;;;;5025207;28;20335;-68
2022/10/03 00:09:31;;;;;;;22.00;4.60;;;11.60;99.90;;;;;;5030891;28;20204;-71
2022/10/03 00:12:13;;;;;;;13.10;2.93;;;11.50;99.90;;;;;;5029871;28;20213;-69
2022/10/03 00:15:01;;;;;;;15.33;3.27;;;11.50;99.90;;;;;;5024418;28;20226;-69
2022/10/03 00:17:54;;;;;;;13.03;3.90;;;11.40;99.90;;;;;;5029521;28;20199;-69
2022/10/03 00:21:00;;;;;;;15.90;3.53;;;11.50;99.90;;;;;;5009605;28;20234;-68
2022/10/03 00:23:51;;;;;;;14.67;3.63;;;11.50;99.90;;;;;;4993601;28;20204;-67
2022/10/03 00:26:59;;;;;;;14.40;4.07;;;11.50;99.90;;;;;;5013934;28;20301;-70
2022/10/03 00:29:46;;;;;;;16.20;3.90;;;11.50;99.90;;;;;;5027816;28;20204;-69
2022/10/03 00:32:12;;;;;;;17.63;3.33;;;11.60;99.90;;;;;;5012893;28;20298;-69
2022/10/03 00:34:49;;;;;;;18.17;4.23;;;11.60;99.90;;;;;;5029124;22;20704;-72
2022/10/03 00:37:37;;;;;;;16.17;3.73;;;11.60;99.90;;;;;;5016961;28;20307;-70
2022/10/03 00:40:24;;;;;;;20.40;4.17;;;11.60;99.90;;;;;;5016857;28;20200;-71
2022/10/03 00:43:10;;;;;;;15.67;3.53;;;11.60;99.90;;;;;;5004335;28;20568;-72
2022/10/03 00:45:48;;;;;;;19.50;3.77;;;11.70;99.90;;;;;;5003771;28;20213;-75
2022/10/03 00:48:26;;;;;;;11.83;3.73;;;11.70;99.90;;;;;;5012817;28;20510;-71
2022/10/03 00:51:10;;;;;;;14.07;3.40;;;11.90;99.90;;;;;;4998514;28;20228;-72
2022/10/03 00:54:05;;;;;;;15.30;3.50;;;11.80;99.90;;;;;;5007550;28;20594;-72
2022/10/03 00:56:52;;;;;;;19.93;4.63;;;11.70;99.90;;;;;;5006130;28;20737;-73
2022/10/03 00:59:41;;;;;;;12.20;3.27;;;11.70;99.90;;;;;;5014441;28;20643;-72
2022/10/03 01:02:31;;;;;;;17.83;4.20;;;11.60;99.90;;;;;;5005657;28;20230;-73
2022/10/03 01:05:14;;;;;;;21.00;3.80;;;11.50;99.90;;;;;;5002268;28;20217;-72
2022/10/03 01:08:23;;;;;;;16.93;4.40;;;11.60;99.90;;;;;;5002619;28;20208;-73
2022/10/03 01:10:58;;;;;;;14.10;3.17;;;11.60;99.90;;;;;;5004603;28;20236;-73
2022/10/03 01:13:44;;;;;;;19.13;4.53;;;11.50;99.90;;;;;;5004590;28;20262;-73
2022/10/03 01:16:50;;;;;;;15.23;3.23;;;11.60;99.90;;;;;;5003401;28;20674;-73
2022/10/03 01:19:41;;;;;;;17.27;4.23;;;11.50;99.90;;;;;;5008746;28;20223;-73
2022/10/03 01:22:19;;;;;;;16.27;4.13;;;11.50;99.90;;;;;;5007511;28;20358;-73
2022/10/03 01:24:52;;;;;;;15.90;3.70;;;11.50;99.90;;;;;;5001997;28;20209;-73
2022/10/03 01:30:21;;;;;;;18.30;3.97;;;11.50;99.90;;;;;;5003249;28;20205;-73
2022/10/03 01:30:33;;;;;;;13.23;3.80;;;11.60;99.90;;;;;;5006332;28;20225;-74
2022/10/03 01:33:09;;;;;;;13.73;3.10;;;11.60;99.90;;;;;;4987991;28;20680;-74
2022/10/03 01:36:28;;;;;;;15.63;4.17;;;11.60;99.90;;;;;;5011797;28;20693;-73
2022/10/03 01:39:14;;;;;;;18.67;3.83;;;11.60;99.90;;;;;;4998499;28;20587;-72
2022/10/03 01:41:47;;;;;;;12.10;3.43;;;11.60;99.90;;;;;;5002466;28;20220;-73
2022/10/03 01:44:25;;;;;;;16.93;3.50;;;11.60;99.90;;;;;;5010338;28;20233;-74
2022/10/03 01:47:17;;;;;;;22.70;3.67;;;11.70;99.90;;;;;;5007158;28;20596;-73
2022/10/03 01:50:19;;;;;;;15.13;3.70;;;11.70;99.90;;;;;;4999205;28;20213;-73
2022/10/03 01:52:53;;;;;;;17.77;3.60;;;11.70;99.90;;;;;;4966302;28;20228;-73
2022/10/03 01:55:32;;;;;;;11.87;3.47;;;11.70;99.90;;;;;;5004224;28;20231;-71
2022/10/03 01:58:05;;;;;;;15.07;3.23;;;11.80;99.90;;;;;;4985431;28;20196;-74
2022/10/03 02:00:54;;;;;;;16.73;4.20;;;11.70;99.90;;;;;;5007285;28;20209;-74
2022/10/03 02:03:27;;;;;;;13.90;3.47;;;11.80;99.90;;;;;;5004202;28;20220;-73
2022/10/03 02:06:05;;;;;;;19.60;4.30;;;11.80;99.90;;;;;;5007423;28;20220;-72
2022/10/03 02:09:00;;;;;;;12.73;3.00;;;11.80;99.90;;;;;;5006839;28;20216;-74
2022/10/03 02:11:33;;;;;;;10.57;3.70;;;11.80;99.90;;;;;;5008012;28;20209;-74
2022/10/03 02:14:34;;;;;;;17.23;3.20;;;11.80;99.90;;;;;;5007271;28;20766;-74
2022/10/03 02:17:06;;;;;;;15.97;3.40;;;11.90;99.90;;;;;;4993703;28;20219;-74
2022/10/03 02:19:41;;;;;;;15.73;3.43;;;11.90;99.90;;;;;;5012722;28;20557;-73
2022/10/03 02:22:31;;;;;;;10.47;2.80;;;11.90;99.90;;;;;;5006768;28;20308;-74
2022/10/03 02:25:19;;;;;;;13.20;3.27;;;11.90;99.90;;;;;;5001838;28;20224;-74
2022/10/03 02:28:08;;;;;;;19.10;3.23;;;11.90;99.90;;;;;;5007664;28;20188;-74
2022/10/03 02:30:54;;;;;;;9.83;3.57;;;11.90;99.90;;;;;;5011638;28;20212;-74
2022/10/03 02:33:43;;;;;;;16.30;2.90;;;12.00;99.90;;;;;;4988105;28;20216;-72
2022/10/03 02:36:35;;;;;;;11.63;3.03;;;12.00;99.90;;;;;;5010555;28;20241;-74
2022/10/03 02:39:19;;;;;;;14.60;3.03;;;12.00;99.90;;;;;;5004811;28;20211;-74
2022/10/03 02:41:54;;;;;;;15.50;3.73;;;12.00;99.90;;;;;;5004130;28;20221;-74
2022/10/03 02:44:29;;;;;;;9.50;2.53;;;12.00;99.90;;;;;;4989274;28;20243;-72
2022/10/03 02:47:25;;;;;;;17.93;3.80;;;12.00;99.90;;;;;;4999994;28;20216;-73
2022/10/03 02:50:18;;;;;;;10.80;2.67;;;12.00;99.90;;;;;;5003184;28;20211;-74
2022/10/03 02:53:06;;;;;;;14.63;4.20;;;12.00;99.90;;;;;;5007703;28;20601;-75
2022/10/03 02:56:05;;;;;;;13.93;3.07;;;12.00;99.90;;;;;;4989150;28;20381;-74
2022/10/03 02:58:32;;;;;;;17.93;4.37;;;12.00;99.90;;;;;;4999079;28;20565;-73
2022/10/03 03:01:18;;;;;;;13.60;2.93;;;11.90;99.90;;;;;;4996774;28;20205;-74
2022/10/03 03:04:02;;;;;;;19.97;3.43;;;11.90;99.90;;;;;;4996059;28;20174;-73
2022/10/03 03:07:04;;;;;;;16.67;3.53;;;12.00;99.90;;;;;;5001393;28;20288;-74
2022/10/03 03:09:57;;;;;;;17.70;3.90;;;11.90;99.90;;;;;;4997008;28;20201;-74
2022/10/03 03:12:41;;;;;;;11.97;2.60;;;11.90;99.90;;;;;;4960104;28;20205;-74
2022/10/03 03:15:43;;;;;;;14.40;3.67;;;11.90;99.90;;;;;;5005723;28;20385;-73
2022/10/03 03:18:43;;;;;;;19.43;3.60;;;11.90;99.90;;;;;;4994028;28;20214;-72
2022/10/03 03:21:33;;;;;;;12.53;2.67;;;11.90;99.90;;;;;;4996232;28;20247;-73
2022/10/03 03:24:26;;;;;;;18.00;3.57;;;11.90;99.90;;;;;;4998008;28;20208;-72
2022/10/03 03:27:22;;;;;;;13.27;3.70;;;11.90;99.90;;;;;;5005714;28;20206;-73
2022/10/03 03:29:56;;;;;;;13.80;3.17;;;11.90;99.90;;;;;;4996715;28;20206;-72
2022/10/03 03:32:46;;;;;;;16.73;3.03;;;11.80;99.90;;;;;;5002591;28;20232;-71
2022/10/03 03:35:39;;;;;;;15.03;2.93;;;11.80;99.90;;;;;;4994661;28;20308;-72
2022/10/03 03:38:27;;;;;;;20.87;4.10;;;11.90;99.90;;;;;;4999344;28;20288;-72
2022/10/03 03:41:04;;;;;;;13.57;3.30;;;11.90;99.90;;;;;;5002000;28;20220;-71
2022/10/03 03:43:54;;;;;;;11.93;3.27;;;11.90;99.90;;;;;;4995987;28;20220;-72
2022/10/03 03:46:35;;;;;;;17.53;3.60;;;11.90;99.90;;;;;;4997566;28;20216;-70
2022/10/03 03:49:19;;;;;;;11.43;2.93;;;11.90;99.90;;;;;;4997195;28;20177;-72
2022/10/03 03:51:55;;;;;;;17.33;3.50;;;11.90;99.90;;;;;;5000900;28;20185;-73
2022/10/03 03:55:04;;;;;;;15.53;3.97;;;11.90;99.90;;;;;;4994752;28;20259;-71
2022/10/03 03:58:07;;;;;;;17.73;4.67;;;11.90;99.90;;;;;;5005574;28;20206;-74
2022/10/03 04:01:02;;;;;;;16.57;3.70;;;11.90;99.90;;;;;;4996909;28;20231;-73
2022/10/03 04:04:18;;;;;;;21.00;4.33;;;11.90;99.90;;;;;;4997955;28;20202;-72
2022/10/03 04:07:02;;;;;;;15.47;3.80;;;11.80;99.90;;;;;;4975006;28;20209;-72
2022/10/03 04:09:50;;;;;;;19.00;3.67;;;11.90;99.90;;;;;;4996948;28;20313;-73
2022/10/03 04:12:31;;;;;;;17.93;3.57;;;11.90;99.90;;;;;;4999125;28;20217;-72
2022/10/03 04:15:21;;;;;;;11.33;3.43;;;11.90;99.90;;;;;;5000091;28;20240;-72
2022/10/03 04:21:18;;;;;;;16.13;3.20;;;11.80;99.90;;;;;;4990554;28;20248;-73
2022/10/03 04:24:33;;;;;;;14.77;4.13;;;11.90;99.90;;;;;;5015478;28;20202;-73
2022/10/03 04:27:11;;;;;;;11.63;2.83;;;11.90;99.90;;;;;;4995083;28;20268;-74
2022/10/03 04:29:41;;;;;;;14.23;3.73;;;11.90;99.90;;;;;;5005569;28;20232;-74
2022/10/03 04:32:45;;;;;;;11.93;3.53;;;11.90;99.90;;;;;;5001186;28;20277;-73
2022/10/03 04:35:14;;;;;;;12.37;4.13;;;11.90;99.90;;;;;;4991717;28;20309;-73
2022/10/03 04:38:05;;;;;;;15.27;4.50;;;11.90;99.90;;;;;;4995136;28;20213;-73
2022/10/03 04:41:18;;;;;;;12.83;4.23;;;11.90;99.90;;;;;;4997152;28;20309;-73
2022/10/03 04:44:18;;;;;;;16.70;4.17;;;11.90;99.90;;;;;;4997888;28;20331;-73
2022/10/03 04:47:07;;;;;;;15.77;3.90;;;11.90;99.90;;;;;;4999965;28;20248;-73
2022/10/03 04:49:41;;;;;;;15.87;3.57;;;11.90;99.90;;;;;;4990839;28;20228;-74
2022/10/03 04:52:38;;;;;;;14.40;4.00;;;11.80;99.90;;;;;;4997096;28;20193;-73
2022/10/03 04:55:41;;;;;;;15.37;4.10;;;11.80;99.90;;;;;;4988495;28;20197;-74
2022/10/03 04:58:22;;;;;;;10.57;2.30;;;11.80;99.90;;;;;;5000515;28;20232;-73
2022/10/03 05:01:06;;;;;;;16.00;3.20;;;11.80;99.90;;;;;;4998859;28;20710;-74
2022/10/03 05:03:49;;;;;;;11.73;2.90;;;11.80;99.90;;;;;;4997614;28;20200;-74
2022/10/03 05:06:24;;;;;;;15.67;3.90;;;11.80;99.90;;;;;;5001978;28;20202;-73
2022/10/03 05:09:03;;;;;;;20.13;4.27;;;11.80;99.90;;;;;;4997141;28;20205;-73
2022/10/03 05:11:54;;;;;;;18.53;4.13;;;11.80;99.90;;;;;;4997827;28;20216;-73
2022/10/03 05:14:57;;;;;;;14.17;3.17;;;11.80;99.90;;;;;;5000850;28;20205;-71
2022/10/03 05:17:51;;;;;;;14.50;3.33;;;11.80;99.90;;;;;;4990867;28;20267;-74
2022/10/03 05:20:30;;;;;;;16.10;3.73;;;11.80;99.90;;;;;;4994394;28;20229;-73
2022/10/03 05:23:46;;;;;;;17.13;3.47;;;11.80;99.90;;;;;;4996938;28;20699;-73
2022/10/03 05:26:33;;;;;;;12.23;3.10;;;11.80;99.90;;;;;;4976673;28;20240;-73
2022/10/03 05:29:16;;;;;;;12.57;3.17;;;11.90;99.90;;;;;;4996891;28;20296;-72
2022/10/03 05:32:12;;;;;;;14.17;3.80;;;11.80;99.90;;;;;;4998190;28;20312;-73
2022/10/03 05:35:16;;;;;;;18.17;4.30;;;11.90;99.90;;;;;;4993767;28;20281;-73
2022/10/03 05:37:51;;;;;;;16.07;3.43;;;11.80;99.90;;;;;;5000346;28;20212;-74
2022/10/03 05:40:24;;;;;;;14.03;3.90;;;11.90;99.90;;;;;;5004358;28;20288;-74
2022/10/03 05:42:52;;;;;;;21.07;4.20;;;11.90;99.90;;;;;;5003741;28;20640;-72
2022/10/03 05:45:37;;;;;;;14.13;3.80;;;11.90;99.90;;;;;;4997594;28;20210;-73
2022/10/03 05:48:44;;;;;;;11.40;2.97;;;11.90;99.90;;;;;;5002378;28;20218;-73
2022/10/03 05:51:31;;;;;;;11.77;2.77;;;11.90;99.90;;;;;;5001929;28;20213;-73
2022/10/03 05:54:34;;;;;;;10.53;3.23;;;11.90;99.90;;;;;;4997338;28;20325;-73
2022/10/03 05:57:18;;;;;;;13.83;3.53;;;11.90;99.90;;;;;;5000634;28;20249;-74
2022/10/03 06:00:11;;;;;;;20.20;3.30;;;11.90;99.90;;;;;;5005212;28;20738;-74
2022/10/03 06:02:56;;;;;;;13.43;3.60;;;12.00;99.90;;;;;;4971027;28;20212;-73
2022/10/03 06:05:52;;;;;;;14.90;2.77;;;11.90;99.90;;;;;;5008128;28;20304;-72
2022/10/03 06:08:43;;;;;;;15.20;3.23;;;11.90;99.90;;;;;;5000305;28;20214;-72
2022/10/03 06:12:09;;;;;;;12.40;3.50;;;12.10;99.90;;;;;;4994444;28;20588;-73
2022/10/03 06:14:34;;;;;;;13.60;2.97;;;12.30;99.90;;;;;;4944549;29;20207;-71
2022/10/03 06:17:40;;;;;;;17.57;3.30;;;12.60;99.90;;;;;;4940932;29;21049;-73
2022/10/03 06:20:43;;;;;;;10.73;3.23;;;12.90;99.90;;;;;;4992740;28;20719;-73
2022/10/03 06:23:41;;;;;;;12.37;2.80;;;12.80;99.90;;;;;;4999220;28;20269;-74
2022/10/03 06:26:25;;;;;;;14.33;3.17;;;12.70;99.90;;;;;;5004566;28;20230;-73
2022/10/03 06:29:00;;;;;;;11.90;3.67;;;12.40;99.90;;;;;;4996438;28;20583;-74
2022/10/03 06:31:50;;;;;;;21.57;4.30;;;12.40;99.90;;;;;;5003035;28;20695;-72
2022/10/03 06:34:50;;;;;;;19.07;3.47;;;12.40;99.90;;;;;;4997011;28;20218;-74
2022/10/03 06:37:36;;;;;;;15.37;4.00;;;12.40;99.90;;;;;;4994582;28;20210;-73
2022/10/03 06:40:39;;;;;;;13.03;3.30;;;12.30;99.90;;;;;;5001149;28;20186;-75
2022/10/03 06:43:08;;;;;;;10.47;3.20;;;12.20;99.90;;;;;;5005436;28;20201;-72
2022/10/03 06:45:46;;;;;;;15.77;3.20;;;12.20;99.90;;;;;;4998345;28;20220;-74
2022/10/03 06:48:39;;;;;;;13.43;3.63;;;12.30;99.90;;;;;;4998234;28;20313;-72
2022/10/03 06:51:42;;;;;;;12.47;3.07;;;12.40;99.90;;;;;;4999392;28;20209;-73
2022/10/03 06:54:35;;;;;;;16.83;2.83;;;12.50;99.90;;;;;;4998232;28;20224;-72
2022/10/03 06:59:58;;;;;;;12.93;3.20;;;12.60;99.90;;;;;;5007608;28;20229;-68
2022/10/03 07:03:01;;;;;;;15.10;2.70;;;12.70;99.90;;;;;;5009838;28;20728;-68
2022/10/03 07:05:53;;;;;;;13.15;3.20;;;13.20;99.90;;;;;;5010231;28;20235;-68
2022/10/03 07:08:44;;;;;;;9.70;2.83;;;13.80;99.90;;;;;;4962231;28;20649;-67
2022/10/03 07:11:20;;;;;;;12.45;2.92;;;14.60;99.90;;;;;;4984386;28;20569;-68
2022/10/03 07:14:21;;;;;;;12.40;3.08;;;15.00;99.90;;;;;;5008078;28;20352;-68
2022/10/03 07:17:40;;;;;;;10.52;2.90;;;14.50;99.90;;;;;;5009880;28;20221;-67
2022/10/03 07:20:08;;;;;;;12.45;2.63;;;14.60;99.90;;;;;;4931131;29;20212;-66
2022/10/03 07:22:52;;;;;;;9.75;2.95;;;14.10;99.90;;;;;;4931665;29;20221;-68
2022/10/03 07:25:53;;;;;;;11.88;3.38;;;13.80;99.90;;;;;;4984098;28;20329;-67
2022/10/03 07:28:30;;;;;;;13.63;3.00;;;13.40;99.90;;;;;;4946938;29;20209;-67
2022/10/03 07:31:19;;;;;;;19.02;6.28;;;13.00;99.90;;;;;;4999549;28;20189;-67
2022/10/03 07:34:06;;;;;;;15.00;2.85;;;13.10;99.90;;;;;;5001088;28;20699;-66
2022/10/03 07:40:09;;;;;;;12.70;5.18;;;13.50;99.90;;;;;;5007847;28;20212;-67
2022/10/03 07:43:02;;;;;;;14.35;5.22;;;13.90;99.90;;;;;;5003264;28;20237;-67
2022/10/03 07:45:46;;;;;;;24.45;5.40;;;14.20;99.90;;;;;;5006643;28;20204;-68
2022/10/03 07:48:31;;;;;;;13.45;2.20;;;14.70;99.90;;;;;;4984314;28;20715;-68
2022/10/03 07:51:31;;;;;;;15.80;3.00;;;14.80;99.90;;;;;;5002465;28;20262;-67
2022/10/03 07:54:24;;;;;;;14.20;2.83;;;14.40;99.90;;;;;;4965887;28;20205;-67
2022/10/03 07:57:20;;;;;;;9.20;2.58;;;14.10;99.90;;;;;;5002586;28;20398;-68
2022/10/03 08:00:12;;;;;;;15.77;3.30;;;13.80;99.90;;;;;;5006649;28;20723;-66
2022/10/03 08:03:15;;;;;;;12.05;2.55;;;13.70;99.90;;;;;;5002345;28;20296;-68
2022/10/03 08:05:52;;;;;;;10.77;2.83;;;13.70;99.90;;;;;;5002834;28;20217;-68
2022/10/03 08:08:49;;;;;;;15.55;3.08;;;13.60;99.90;;;;;;5006460;28;20213;-66
2022/10/03 08:11:42;;;;;;;8.60;2.97;;;13.60;99.90;;;;;;4999888;28;20619;-69
2022/10/03 08:14:20;;;;;;;10.00;3.03;;;13.70;99.90;;;;;;4997937;28;20312;-67
2022/10/03 08:17:43;;;;;;;8.30;2.38;;;13.70;99.90;;;;;;5009247;28;20212;-67
2022/10/03 08:20:28;;;;;;;14.57;3.10;;;14.00;99.90;;;;;;4955794;28;20283;-70
2022/10/03 08:23:12;;;;;;;11.88;2.47;;;14.70;99.90;;;;;;4950650;28;20217;-69
2022/10/03 08:25:56;;;;;;;12.38;2.50;;;15.00;99.90;;;;;;4992356;28;20201;-68
2022/10/03 08:28:29;;;;;;;8.85;2.85;;;15.20;99.90;;;;;;5004074;28;20229;-72
2022/10/03 08:31:08;;;;;;;9.52;2.53;;;15.20;99.90;;;;;;5006164;28;20204;-68
2022/10/03 08:34:22;;;;;;;10.80;2.85;;;15.10;99.90;;;;;;4977326;28;20248;-69
2022/10/03 08:37:24;;;;;;;10.38;2.70;;;14.70;99.90;;;;;;5000793;28;20307;-69
2022/10/03 08:40:33;;;;;;;9.70;2.45;;;14.60;99.90;;;;;;4980481;28;20236;-68
2022/10/03 08:43:27;;;;;;;11.02;2.30;;;14.50;99.90;;;;;;5003052;28;20292;-69
2022/10/03 08:46:07;;;;;;;16.15;3.00;;;14.50;99.90;;;;;;5004513;28;20184;-70
2022/10/03 08:49:01;;;;;;;13.63;2.80;;;14.50;99.90;;;;;;5002238;28;20233;-69
2022/10/03 08:51:46;;;;;;;17.58;3.10;;;14.70;99.90;;;;;;5001983;28;20841;-68
2022/10/03 08:54:46;;;;;;;8.98;2.25;;;14.80;99.90;;;;;;5003864;28;20344;-69
2022/10/03 08:57:33;;;;;;;7.28;2.30;;;14.90;99.90;;;;;;5003295;28;20215;-69
2022/10/03 09:00:04;;;;;;;11.98;2.38;;;15.10;99.90;;;;;;4999147;28;20237;-67
2022/10/03 09:02:56;;;;;;;11.75;3.08;;;15.10;99.90;;;;;;4999021;28;20216;-69
2022/10/03 09:05:27;;;;;;;12.25;2.88;;;15.20;99.90;;;;;;4997970;28;20216;-68
2022/10/03 09:08:20;;;;;;;13.75;2.28;;;15.00;99.90;;;;;;5000738;28;20204;-68
2022/10/03 09:11:13;;;;;;;14.57;3.10;;;14.80;99.90;;;;;;4999942;28;20565;-69
2022/10/03 09:14:03;;;;;;;16.08;2.53;;;14.70;99.90;;;;;;4970890;28;20237;-69
2022/10/03 09:16:50;;;;;;;14.35;2.70;;;14.60;99.90;;;;;;5004034;28;20662;-68
2022/10/03 09:19:34;;;;;;;12.18;2.72;;;14.50;99.90;;;;;;5011353;28;20294;-67
2022/10/03 09:22:19;;;;;;;9.65;2.30;;;14.40;99.90;;;;;;5005186;28;20651;-69
2022/10/03 09:25:00;;;;;;;8.75;2.78;;;14.50;99.90;;;;;;5000026;28;20181;-68
2022/10/03 09:27:41;;;;;;;18.30;4.05;;;14.70;99.90;;;;;;5001847;28;20217;-68
2022/10/03 09:30:31;;;;;;;12.48;3.10;;;15.10;99.90;;;;;;5002493;28;20211;-68
2022/10/03 09:33:17;;;;;;;9.13;2.33;;;15.20;99.90;;;;;;4978110;28;20228;-69
2022/10/03 09:36:33;;;;;;;13.23;2.63;;;15.30;99.90;;;;;;5006496;28;20209;-69
2022/10/03 09:39:23;;;;;;;9.65;2.60;;;15.40;99.90;;;;;;4972523;28;20213;-69
2022/10/03 09:42:16;;;;;;;8.20;2.58;;;15.50;99.90;;;;;;5004397;28;20220;-70
2022/10/03 09:45:00;;;;;;;18.17;3.22;;;15.60;99.90;;;;;;4997165;28;20792;-69
2022/10/03 09:47:47;;;;;;;11.32;2.42;;;15.60;99.90;;;;;;5001368;28;20304;-69
2022/10/03 09:50:37;;;;;;;13.90;2.75;;;15.60;99.90;;;;;;5004053;28;20715;-68
2022/10/03 09:53:28;;;;;;;15.52;3.30;;;15.80;99.90;;;;;;4975298;28;20217;-68
2022/10/03 09:56:18;;;;;;;11.07;3.00;;;15.90;99.90;;;;;;5005004;28;20589;-68
2022/10/03 09:59:12;;;;;;;14.55;2.70;;;15.90;99.90;;;;;;5003214;28;20244;-68
2022/10/03 10:02:02;;;;;;;12.00;2.40;;;15.80;99.90;;;;;;5003219;28;20270;-69
2022/10/03 10:04:59;;;;;;;16.48;3.00;;;15.50;99.90;;;;;;5005333;28;20213;-69
2022/10/03 10:08:03;;;;;;;13.80;3.63;;;15.30;99.90;;;;;;5005271;28;20248;-69
2022/10/03 10:10:41;;;;;;;12.52;3.20;;;15.10;99.90;;;;;;5004274;28;20742;-70
2022/10/03 10:13:25;;;;;;;11.93;2.85;;;15.10;99.90;;;;;;4999274;28;20181;-70
2022/10/03 10:16:31;;;;;;;11.63;2.65;;;15.10;99.90;;;;;;5000750;28;20679;-69
2022/10/03 10:19:18;;;;;;;11.00;3.08;;;15.30;99.90;;;;;;4988459;28;20316;-69
2022/10/03 10:22:27;;;;;;;9.63;2.88;;;15.30;99.90;;;;;;5002309;28;20311;-70
2022/10/03 10:25:08;;;;;;;12.55;2.90;;;15.60;99.90;;;;;;5010906;28;20710;-70
2022/10/03 10:28:07;;;;;;;10.95;2.95;;;16.00;99.90;;;;;;4981441;28;20214;-68
2022/10/03 10:31:10;;;;;;;11.70;2.95;;;15.90;99.90;;;;;;5003944;28;20209;-68
2022/10/03 10:34:14;;;;;;;14.95;2.67;;;15.80;99.90;;;;;;5002800;28;20546;-70
2022/10/03 10:37:03;;;;;;;11.23;3.25;;;16.00;99.90;;;;;;4999836;28;20201;-70
2022/10/03 10:40:03;;;;;;;7.15;3.03;;;16.30;99.90;;;;;;5001650;28;20221;-71
2022/10/03 10:43:09;;;;;;;9.90;2.60;;;16.60;99.90;;;;;;5003805;28;20225;-70
2022/10/03 10:45:50;;;;;;;8.98;2.65;;;16.70;99.90;;;;;;5006913;28;20227;-70
2022/10/03 10:49:10;;;;;;;10.15;2.60;;;16.80;99.90;;;;;;5001153;28;20227;-69
2022/10/03 10:51:56;;;;;;;10.45;2.72;;;16.70;99.90;;;;;;4987197;28;20240;-69
2022/10/03 10:55:12;;;;;;;10.75;2.50;;;16.60;99.90;;;;;;5005711;28;20586;-69
2022/10/03 10:58:15;;;;;;;10.30;2.60;;;16.50;99.90;;;;;;4942483;29;20712;-69
2022/10/03 11:01:18;;;;;;;12.75;3.00;;;16.60;99.90;;;;;;4934396;29;20732;-69
2022/10/03 11:04:03;;;;;;;10.50;2.60;;;16.50;99.90;;;;;;5005055;28;20208;-67
2022/10/03 11:06:57;;;;;;;10.27;2.40;;;16.20;99.90;;;;;;5008119;28;20379;-68
2022/10/03 11:10:00;;;;;;;7.78;2.22;;;16.20;99.90;;;;;;5005726;28;20248;-68
2022/10/03 11:13:05;;;;;;;8.32;2.55;;;16.30;99.90;;;;;;5005162;28;20216;-67
2022/10/03 11:16:05;;;;;;;10.50;2.47;;;16.10;99.90;;;;;;5003227;28;20220;-69
2022/10/03 11:19:01;;;;;;;5.53;1.80;;;16.20;99.90;;;;;;4991817;28;20217;-68
2022/10/03 11:21:51;;;;;;;8.93;2.15;;;16.00;99.90;;;;;;5006310;28;20219;-68
2022/10/03 11:24:44;;;;;;;10.20;2.28;;;16.20;99.90;;;;;;5002721;28;20206;-69
2022/10/03 11:27:31;;;;;;;9.20;2.03;;;16.00;99.90;;;;;;5006803;28;20197;-67
2022/10/03 11:30:35;;;;;;;8.05;1.67;;;15.90;99.90;;;;;;5005700;28;20204;-69
2022/10/03 11:33:44;;;;;;;8.93;2.38;;;15.70;99.90;;;;;;5002431;28;20232;-68
2022/10/03 11:36:46;;;;;;;6.35;1.88;;;15.60;99.90;;;;;;4962357;28;20286;-68
2022/10/03 11:39:21;;;;;;;5.20;1.77;;;15.80;99.90;;;;;;5006830;28;20212;-69
2022/10/03 11:41:51;;;;;;;9.55;1.80;;;15.70;99.90;;;;;;5005817;28;20223;-70
2022/10/03 11:44:42;;;;;;;7.70;2.00;;;15.50;99.90;;;;;;5006253;28;20205;-69
2022/10/03 11:47:26;;;;;;;4.60;1.63;;;15.80;99.90;;;;;;4996865;28;20205;-70
2022/10/03 11:50:19;;;;;;;9.25;2.08;;;15.80;99.90;;;;;;5002215;28;20915;-69
2022/10/03 11:53:10;;;;;;;8.18;2.15;;;15.90;99.90;;;;;;5003145;28;20221;-70
2022/10/03 11:55:50;;;;;;;5.47;1.42;;;15.90;99.90;;;;;;5001150;28;20206;-69
2022/10/03 11:58:49;;;;;;;8.82;2.30;;;15.50;99.90;;;;;;4997454;28;20806;-71
2022/10/03 12:01:50;;;;;;;6.75;1.63;;;15.40;99.90;;;;;;5002053;28;20251;-70
2022/10/03 12:04:19;;;;;;;8.95;2.38;;;15.40;99.90;;;;;;4977959;28;20205;-70
2022/10/03 12:09:57;;;;;;;8.13;1.85;;;15.50;99.90;;;;;;5004005;28;20259;-69
2022/10/03 12:12:42;;;;;;;10.95;2.40;;;15.50;99.90;;;;;;5003308;28;20245;-69
2022/10/03 12:15:28;;;;;;;9.52;2.35;;;15.30;99.90;;;;;;4998704;28;20720;-70
2022/10/03 12:18:13;;;;;;;11.13;2.75;;;15.50;99.90;;;;;;4999934;28;20221;-69
2022/10/03 12:21:04;;;;;;;10.68;2.38;;;15.70;99.90;;;;;;5002190;28;20209;-69
2022/10/03 12:24:07;;;;;;;8.80;2.40;;;15.90;99.90;;;;;;5005958;28;20254;-69
2022/10/03 12:26:48;;;;;;;10.25;3.05;;;15.90;99.90;;;;;;5001776;28;20230;-68
2022/10/03 12:29:15;;;;;;;11.80;3.83;;;15.80;99.90;;;;;;5000017;28;20658;-69
2022/10/03 12:32:08;;;;;;;9.82;2.80;;;15.80;99.90;;;;;;4998807;28;20249;-67
2022/10/03 12:34:57;;;;;;;11.90;3.10;;;15.70;99.90;;;;;;5004666;28;20209;-70
2022/10/03 12:37:44;;;;;;;7.68;2.17;;;15.80;99.90;;;;;;4997677;28;20216;-69
2022/10/03 12:40:21;;;;;;;11.65;2.50;;;16.00;99.90;;;;;;5000705;28;20204;-70
2022/10/03 12:43:09;;;;;;;9.73;2.88;;;16.00;99.90;;;;;;5004522;28;20204;-67
2022/10/03 12:45:53;;;;;;;11.13;3.13;;;16.20;99.90;;;;;;4990887;28;20621;-70
2022/10/03 12:48:18;;;;;;;7.20;2.30;;;16.30;99.90;;;;;;5004175;28;20606;-69
2022/10/03 12:51:02;;;;;;;10.18;2.78;;;16.30;99.90;;;;;;4985996;28;20216;-69
2022/10/03 12:53:49;;;;;;;5.78;2.20;;;16.30;99.90;;;;;;5005754;28;20201;-70
2022/10/03 12:56:47;;;;;;;8.18;2.13;;;16.20;99.90;;;;;;5005843;28;20292;-69
2022/10/03 12:59:15;;;;;;;7.70;2.80;;;16.20;99.90;;;;;;5002664;28;20224;-71
2022/10/03 13:01:59;;;;;;;6.28;2.25;;;16.20;99.90;;;;;;4998598;28;20252;-70
2022/10/03 13:04:30;;;;;;;7.70;1.63;;;16.10;99.90;;;;;;4983890;28;20213;-71
2022/10/03 13:07:17;;;;;;;11.52;2.20;;;16.00;99.90;;;;;;4992333;28;20183;-73
2022/10/03 13:10:20;;;;;;;5.78;1.67;;;16.00;99.90;;;;;;5029815;23;20237;-69
2022/10/03 13:12:55;;;;;;;5.78;1.50;;;16.00;99.90;;;;;;5003969;28;20205;-70
2022/10/03 13:15:39;;;;;;;6.63;1.80;;;16.10;99.90;;;;;;5008756;28;20196;-70
2022/10/03 13:18:11;;;;;;;5.65;1.92;;;16.10;99.90;;;;;;4980468;28;20216;-70
2022/10/03 13:20:41;;;;;;;6.57;1.67;;;16.20;99.90;;;;;;5002131;28;20212;-71
2022/10/03 13:23:31;;;;;;;5.57;2.03;;;16.10;99.90;;;;;;4998793;28;20213;-71
2022/10/03 13:26:18;;;;;;;5.20;1.50;;;16.20;99.90;;;;;;4997699;28;20216;-70
2022/10/03 13:28:50;;;;;;;5.68;2.13;;;16.20;99.90;;;;;;4998432;28;20232;-69
2022/10/03 13:31:24;;;;;;;8.35;1.42;;;16.30;99.90;;;;;;4986132;28;20205;-70
2022/10/03 13:33:57;;;;;;;3.83;1.20;;;16.20;99.90;;;;;;4998519;28;20181;-68
2022/10/03 13:36:52;;;;;;;4.97;1.92;;;16.20;99.90;;;;;;4978438;28;20347;-70
2022/10/03 13:39:33;;;;;;;6.40;1.65;;;16.20;99.90;;;;;;4988100;28;20228;-68
2022/10/03 13:42:15;;;;;;;7.78;2.53;;;16.10;99.90;;;;;;4997280;28;20328;-69
2022/10/03 13:44:47;;;;;;;7.47;1.70;;;16.10;99.90;;;;;;5006572;28;20824;-68
2022/10/03 13:47:51;;;;;;;8.45;2.33;;;16.10;99.90;;;;;;4998489;28;20228;-70
2022/10/03 13:50:35;;;;;;;5.80;1.88;;;16.10;99.90;;;;;;5001722;28;20212;-68
2022/10/03 13:53:09;;;;;;;6.65;1.73;;;16.30;99.90;;;;;;4997320;28;20695;-70
2022/10/03 13:55:41;;;;;;;7.63;2.25;;;16.40;99.90;;;;;;5002808;28;20208;-72
2022/10/03 13:58:25;;;;;;;7.07;2.00;;;16.30;99.90;;;;;;4986208;28;20180;-72
2022/10/03 14:01:12;;;;;;;6.90;2.00;;;16.20;99.90;;;;;;5001585;28;20216;-70
2022/10/03 14:03:55;;;;;;;12.48;2.70;;;16.10;99.90;;;;;;5007037;28;20218;-69
2022/10/03 14:06:47;;;;;;;7.18;2.65;;;16.00;99.90;;;;;;5004407;28;20209;-69
2022/10/03 14:09:34;;;;;;;11.55;2.42;;;15.90;99.90;;;;;;4983476;28;20300;-70
2022/10/03 14:12:03;;;;;;;7.15;2.58;;;15.80;99.90;;;;;;4985543;28;20282;-68
2022/10/03 14:14:48;;;;;;;7.10;2.45;;;15.80;99.90;;;;;;4988931;28;20263;-70
2022/10/03 14:17:19;;;;;;;9.80;2.92;;;15.80;99.90;;;;;;5003442;28;20213;-68
2022/10/03 14:20:03;;;;;;;11.98;3.33;;;15.80;99.90;;;;;;4984071;28;20252;-68
2022/10/03 14:22:53;;;;;;;7.75;2.70;;;15.80;99.90;;;;;;5004439;28;20221;-69
2022/10/03 14:25:24;;;;;;;8.55;2.25;;;15.90;99.90;;;;;;5003996;28;20217;-69
2022/10/03 14:28:01;;;;;;;8.25;2.05;;;15.80;99.90;;;;;;5001487;28;20286;-69
2022/10/03 14:30:54;;;;;;;8.50;2.00;;;15.90;99.90;;;;;;5003525;28;20212;-68
2022/10/03 14:33:45;;;;;;;9.25;2.55;;;15.90;99.90;;;;;;5010746;28;20240;-71
2022/10/03 14:36:35;;;;;;;8.77;2.70;;;16.00;99.90;;;;;;5009629;28;20210;-69
2022/10/03 14:39:06;;;;;;;9.40;2.00;;;16.00;99.90;;;;;;5003681;28;20578;-66
2022/10/03 14:41:32;;;;;;;10.57;2.38;;;16.20;99.90;;;;;;5002544;28;20704;-68